Nearby METAR Reports

 

KKLS - Kelso Longveiw, Washington, USA
Distance from station: ESE 7mi, 11km
Updated: 2017-12-11 08:56
Clear
Clear
 Wind from SSE
Wind: SSE 7 mph , 11 km/h
Temperature: 32°F , 0°C
Wind Chill: 25°F , -4°C
Dew Point: 28°F , -2°C
Humidity: 87%
Barometer: 1029.1 hPa
Clouds: Clear
Visibility: 10 miles , 16 km
2017/12/11 16:56 KKLS 111656Z AUTO 16006KT 10SM CLR 00/M02 A3039 RMK AO2 SLP297 T00001017 FZRANO
KSPB - Scappoose, Oregon, USA
Distance from station: SSE 29mi, 46km
Updated: 2017-12-11 08:53
Clear
Clear
 Wind from SW
Wind: SW 5 mph , 7 km/h
Temperature: 30°F , -1°C
Wind Chill: 25°F , -4°C
Dew Point: 27°F , -3°C
Humidity: 86%
Barometer: 1030.5 hPa
Clouds: Clear
Visibility: 10 miles , 16 km
2017/12/11 16:53 KSPB 111653Z AUTO 23004KT 10SM CLR M01/M03 A3043 RMK AO2 SLP304 T10111028
 
KCLS - Chehalis Central, Washington, USA
Distance from station: N 36mi, 58km
Updated: 2017-12-11 08:55
Clear
Clear
 Wind from calm
Wind: Calm
Temperature: 28°F , -2°C
Dew Point: 28°F , -2°C
Humidity: 100%
Barometer: 1028.1 hPa
Clouds: Clear
Visibility: 10 miles , 16 km
2017/12/11 16:55 KCLS 111655Z AUTO 00000KT 10SM CLR M02/M02 A3036 RMK AO2
KAST - Astoria, Oregon, USA
Distance from station: W 41mi, 66km
Updated: 2017-12-11 08:55
Clear
Clear
 Wind from NE
Wind: NE 13 mph , 20 km/h
Temperature: 43°F , 6°C
Wind Chill: 36°F , 2°C
Dew Point: 28°F , -2°C
Humidity: 57%
Barometer: 1025.4 hPa
Clouds: Clear
Visibility: 10 miles , 16 km
2017/12/11 16:55 KAST 111655Z AUTO 05011KT 10SM CLR 06/M02 A3028 RMK AO2 SLP254 T00561017
 
KVUO - Vancouver, Washington, USA
Distance from station: SSE 42mi, 68km
Updated: 2017-12-11 08:53
Clear
Clear
 Wind from calm
Wind: Calm
Temperature: 32°F , 0°C
Dew Point: 27°F , -3°C
Humidity: 80%
Barometer: 1030.1 hPa
Clouds: Clear
Visibility: 10 miles , 16 km
2017/12/11 16:53 KVUO 111653Z AUTO 00000KT 10SM CLR 00/M03 A3042 RMK AO2 SLP302 T00001033
KHIO - Hillsboro/Portld, Oregon, USA
Distance from station: S 43mi, 69km
Updated: 2017-12-11 08:53
Clear
Clear
 Wind from WNW
Wind: WNW 3 mph , 6 km/h
Temperature: 27°F , -3°C
Dew Point: 25°F , -4°C
Humidity: 93%
Barometer: 1030.1 hPa
Clouds: Clear
Visibility: 9 miles , 14 km
2017/12/11 16:53 KHIO 111653Z 30003KT 9SM CLR M03/M04 A3042 RMK AO2 SLP306 T10281039
 
KPDX - Portland, Oregon, USA
Distance from station: SSE 44mi, 70km
Updated: 2017-12-11 08:53
Clear
Clear
 Wind from ENE
Wind: ENE 7 mph , 11 km/h
Temperature: 37°F , 3°C
Wind Chill: 32°F , 0°C
Dew Point: 27°F , -3°C
Humidity: 65%
Barometer: 1030.1 hPa
Clouds: Clear
Visibility: 10 miles , 16 km
2017/12/11 16:53 KPDX 111653Z 07006KT 10SM CLR 03/M03 A3042 RMK AO2 SLP299 T00281033